sensor_id;sensor_type;location;lat;lon;timestamp;P1;durP1;ratioP1;P2;durP2;ratioP2
19814;SDS011;10067;53.092;8.800;2023-07-22T00:02:25;13.57;;;9.45;;
19814;SDS011;10067;53.092;8.800;2023-07-22T00:04:51;16.83;;;9.35;;
19814;SDS011;10067;53.092;8.800;2023-07-22T00:07:18;15.57;;;10.05;;
19814;SDS011;10067;53.092;8.800;2023-07-22T00:09:44;17.67;;;10.02;;
19814;SDS011;10067;53.092;8.800;2023-07-22T00:12:11;15.43;;;9.45;;
19814;SDS011;10067;53.092;8.800;2023-07-22T00:14:38;15.45;;;9.82;;
19814;SDS011;10067;53.092;8.800;2023-07-22T00:17:05;12.50;;;9.10;;
19814;SDS011;10067;53.092;8.800;2023-07-22T00:19:33;15.25;;;9.07;;
19814;SDS011;10067;53.092;8.800;2023-07-22T00:21:59;17.02;;;9.70;;
19814;SDS011;10067;53.092;8.800;2023-07-22T00:24:26;15.45;;;9.00;;
19814;SDS011;10067;53.092;8.800;2023-07-22T00:26:53;18.02;;;10.25;;
19814;SDS011;10067;53.092;8.800;2023-07-22T00:29:20;18.15;;;10.27;;
19814;SDS011;10067;53.092;8.800;2023-07-22T00:31:46;14.77;;;9.63;;
19814;SDS011;10067;53.092;8.800;2023-07-22T00:34:13;18.50;;;9.40;;
19814;SDS011;10067;53.092;8.800;2023-07-22T00:36:40;14.30;;;10.38;;
19814;SDS011;10067;53.092;8.800;2023-07-22T00:39:07;14.15;;;9.80;;
19814;SDS011;10067;53.092;8.800;2023-07-22T00:41:33;17.95;;;10.43;;
19814;SDS011;10067;53.092;8.800;2023-07-22T00:43:59;16.60;;;10.18;;
19814;SDS011;10067;53.092;8.800;2023-07-22T00:46:26;18.02;;;9.57;;
19814;SDS011;10067;53.092;8.800;2023-07-22T00:48:52;17.55;;;10.02;;
19814;SDS011;10067;53.092;8.800;2023-07-22T00:51:18;19.38;;;9.93;;
19814;SDS011;10067;53.092;8.800;2023-07-22T00:53:48;16.75;;;9.32;;
19814;SDS011;10067;53.092;8.800;2023-07-22T00:56:15;16.92;;;9.75;;
19814;SDS011;10067;53.092;8.800;2023-07-22T00:58:41;15.75;;;9.68;;
19814;SDS011;10067;53.092;8.800;2023-07-22T01:01:07;15.48;;;9.65;;
19814;SDS011;10067;53.092;8.800;2023-07-22T01:03:34;17.92;;;9.85;;
19814;SDS011;10067;53.092;8.800;2023-07-22T01:06:00;18.98;;;9.70;;
19814;SDS011;10067;53.092;8.800;2023-07-22T01:08:27;16.80;;;9.60;;
19814;SDS011;10067;53.092;8.800;2023-07-22T01:10:55;15.68;;;9.75;;
19814;SDS011;10067;53.092;8.800;2023-07-22T01:13:21;17.48;;;8.95;;
19814;SDS011;10067;53.092;8.800;2023-07-22T01:15:48;14.95;;;9.73;;
19814;SDS011;10067;53.092;8.800;2023-07-22T01:18:14;21.83;;;9.27;;
19814;SDS011;10067;53.092;8.800;2023-07-22T01:20:41;14.30;;;9.45;;
19814;SDS011;10067;53.092;8.800;2023-07-22T01:23:09;21.67;;;10.05;;
19814;SDS011;10067;53.092;8.800;2023-07-22T01:25:36;19.50;;;9.77;;
19814;SDS011;10067;53.092;8.800;2023-07-22T01:28:02;18.85;;;9.43;;
19814;SDS011;10067;53.092;8.800;2023-07-22T01:30:29;18.02;;;9.60;;
19814;SDS011;10067;53.092;8.800;2023-07-22T01:32:55;18.85;;;9.52;;
19814;SDS011;10067;53.092;8.800;2023-07-22T01:35:21;16.35;;;8.85;;
19814;SDS011;10067;53.092;8.800;2023-07-22T01:37:47;15.40;;;9.07;;
19814;SDS011;10067;53.092;8.800;2023-07-22T01:40:16;14.60;;;9.48;;
19814;SDS011;10067;53.092;8.800;2023-07-22T01:42:43;16.08;;;8.93;;
19814;SDS011;10067;53.092;8.800;2023-07-22T01:45:10;14.32;;;8.68;;
19814;SDS011;10067;53.092;8.800;2023-07-22T01:47:36;15.60;;;9.00;;
19814;SDS011;10067;53.092;8.800;2023-07-22T01:50:03;16.17;;;8.82;;
19814;SDS011;10067;53.092;8.800;2023-07-22T01:52:31;17.15;;;8.95;;
19814;SDS011;10067;53.092;8.800;2023-07-22T01:54:58;16.20;;;8.82;;
19814;SDS011;10067;53.092;8.800;2023-07-22T01:57:25;16.98;;;9.70;;
19814;SDS011;10067;53.092;8.800;2023-07-22T01:59:52;18.58;;;9.30;;
19814;SDS011;10067;53.092;8.800;2023-07-22T02:02:18;17.23;;;8.27;;
19814;SDS011;10067;53.092;8.800;2023-07-22T02:04:45;20.20;;;8.93;;
19814;SDS011;10067;53.092;8.800;2023-07-22T02:07:11;20.83;;;10.32;;
19814;SDS011;10067;53.092;8.800;2023-07-22T02:09:38;13.50;;;8.35;;
19814;SDS011;10067;53.092;8.800;2023-07-22T02:12:06;17.00;;;8.65;;
19814;SDS011;10067;53.092;8.800;2023-07-22T02:14:34;22.95;;;9.05;;
19814;SDS011;10067;53.092;8.800;2023-07-22T02:17:02;17.27;;;9.25;;
19814;SDS011;10067;53.092;8.800;2023-07-22T02:19:28;18.70;;;8.95;;
19814;SDS011;10067;53.092;8.800;2023-07-22T02:21:55;16.85;;;8.77;;
19814;SDS011;10067;53.092;8.800;2023-07-22T02:24:21;17.63;;;8.98;;
19814;SDS011;10067;53.092;8.800;2023-07-22T02:26:47;15.90;;;8.85;;
19814;SDS011;10067;53.092;8.800;2023-07-22T02:29:15;17.23;;;8.88;;
19814;SDS011;10067;53.092;8.800;2023-07-22T02:31:42;20.90;;;9.07;;
19814;SDS011;10067;53.092;8.800;2023-07-22T02:34:09;22.33;;;10.10;;
19814;SDS011;10067;53.092;8.800;2023-07-22T02:36:36;22.17;;;10.00;;
19814;SDS011;10067;53.092;8.800;2023-07-22T02:39:02;18.10;;;9.68;;
19814;SDS011;10067;53.092;8.800;2023-07-22T02:41:29;17.10;;;8.48;;
19814;SDS011;10067;53.092;8.800;2023-07-22T02:43:55;17.48;;;9.60;;
19814;SDS011;10067;53.092;8.800;2023-07-22T02:46:22;17.65;;;8.65;;
19814;SDS011;10067;53.092;8.800;2023-07-22T02:48:51;17.55;;;9.38;;
19814;SDS011;10067;53.092;8.800;2023-07-22T02:51:17;17.73;;;9.45;;
19814;SDS011;10067;53.092;8.800;2023-07-22T02:53:44;19.50;;;8.85;;
19814;SDS011;10067;53.092;8.800;2023-07-22T02:56:11;17.73;;;9.25;;
19814;SDS011;10067;53.092;8.800;2023-07-22T02:58:38;21.25;;;9.40;;
19814;SDS011;10067;53.092;8.800;2023-07-22T03:01:07;18.45;;;9.15;;
19814;SDS011;10067;53.092;8.800;2023-07-22T03:03:34;26.38;;;9.70;;
19814;SDS011;10067;53.092;8.800;2023-07-22T03:06:02;18.02;;;9.57;;
19814;SDS011;10067;53.092;8.800;2023-07-22T03:08:29;17.42;;;8.63;;
19814;SDS011;10067;53.092;8.800;2023-07-22T03:10:55;15.75;;;9.18;;
19814;SDS011;10067;53.092;8.800;2023-07-22T03:13:22;19.42;;;9.90;;
19814;SDS011;10067;53.092;8.800;2023-07-22T03:15:48;17.23;;;9.50;;
19814;SDS011;10067;53.092;8.800;2023-07-22T03:18:14;18.98;;;9.25;;
19814;SDS011;10067;53.092;8.800;2023-07-22T03:20:41;17.83;;;10.00;;
19814;SDS011;10067;53.092;8.800;2023-07-22T03:23:08;20.52;;;10.20;;
19814;SDS011;10067;53.092;8.800;2023-07-22T03:25:35;20.13;;;9.02;;
19814;SDS011;10067;53.092;8.800;2023-07-22T03:28:02;19.63;;;9.30;;
19814;SDS011;10067;53.092;8.800;2023-07-22T03:30:29;19.33;;;9.32;;
19814;SDS011;10067;53.092;8.800;2023-07-22T03:32:55;17.75;;;9.45;;
19814;SDS011;10067;53.092;8.800;2023-07-22T03:35:22;14.15;;;8.88;;
19814;SDS011;10067;53.092;8.800;2023-07-22T03:37:48;17.15;;;9.35;;
19814;SDS011;10067;53.092;8.800;2023-07-22T03:40:16;16.83;;;8.90;;
19814;SDS011;10067;53.092;8.800;2023-07-22T03:42:44;17.13;;;9.77;;
19814;SDS011;10067;53.092;8.800;2023-07-22T03:45:11;20.98;;;10.07;;
19814;SDS011;10067;53.092;8.800;2023-07-22T03:47:38;15.32;;;9.02;;
19814;SDS011;10067;53.092;8.800;2023-07-22T03:50:03;20.95;;;10.30;;
19814;SDS011;10067;53.092;8.800;2023-07-22T03:52:31;22.20;;;10.38;;
19814;SDS011;10067;53.092;8.800;2023-07-22T03:54:57;17.95;;;9.38;;
19814;SDS011;10067;53.092;8.800;2023-07-22T03:57:26;16.63;;;9.82;;
19814;SDS011;10067;53.092;8.800;2023-07-22T03:59:53;16.23;;;8.70;;
19814;SDS011;10067;53.092;8.800;2023-07-22T04:02:19;14.07;;;8.90;;
19814;SDS011;10067;53.092;8.800;2023-07-22T04:04:45;17.83;;;9.73;;
19814;SDS011;10067;53.092;8.800;2023-07-22T04:07:12;17.63;;;9.63;;
19814;SDS011;10067;53.092;8.800;2023-07-22T04:09:38;20.13;;;11.27;;
19814;SDS011;10067;53.092;8.800;2023-07-22T04:12:05;17.17;;;9.70;;
19814;SDS011;10067;53.092;8.800;2023-07-22T04:14:33;17.65;;;9.75;;
19814;SDS011;10067;53.092;8.800;2023-07-22T04:17:00;17.33;;;9.45;;
19814;SDS011;10067;53.092;8.800;2023-07-22T04:19:26;15.45;;;8.88;;
19814;SDS011;10067;53.092;8.800;2023-07-22T04:21:52;14.30;;;8.27;;
19814;SDS011;10067;53.092;8.800;2023-07-22T04:24:20;17.85;;;9.20;;
19814;SDS011;10067;53.092;8.800;2023-07-22T04:26:46;17.75;;;9.20;;
19814;SDS011;10067;53.092;8.800;2023-07-22T04:29:13;20.45;;;9.00;;
19814;SDS011;10067;53.092;8.800;2023-07-22T04:31:40;16.38;;;9.63;;
19814;SDS011;10067;53.092;8.800;2023-07-22T04:34:06;18.40;;;9.13;;
19814;SDS011;10067;53.092;8.800;2023-07-22T04:36:33;20.15;;;9.50;;
19814;SDS011;10067;53.092;8.800;2023-07-22T04:38:59;16.88;;;9.85;;
19814;SDS011;10067;53.092;8.800;2023-07-22T04:41:26;18.77;;;9.70;;
19814;SDS011;10067;53.092;8.800;2023-07-22T04:43:52;19.05;;;9.20;;
19814;SDS011;10067;53.092;8.800;2023-07-22T04:46:18;19.95;;;12.15;;
19814;SDS011;10067;53.092;8.800;2023-07-22T04:48:47;21.13;;;12.65;;
19814;SDS011;10067;53.092;8.800;2023-07-22T04:51:13;18.83;;;12.07;;
19814;SDS011;10067;53.092;8.800;2023-07-22T04:53:39;20.35;;;12.82;;
19814;SDS011;10067;53.092;8.800;2023-07-22T04:56:06;20.38;;;12.00;;
19814;SDS011;10067;53.092;8.800;2023-07-22T04:58:32;24.30;;;14.60;;
19814;SDS011;10067;53.092;8.800;2023-07-22T05:00:58;18.98;;;13.00;;
19814;SDS011;10067;53.092;8.800;2023-07-22T05:03:25;18.30;;;10.05;;
19814;SDS011;10067;53.092;8.800;2023-07-22T05:05:53;16.95;;;10.27;;
19814;SDS011;10067;53.092;8.800;2023-07-22T05:08:19;22.48;;;11.52;;
19814;SDS011;10067;53.092;8.800;2023-07-22T05:10:46;17.73;;;9.05;;
19814;SDS011;10067;53.092;8.800;2023-07-22T05:13:12;16.73;;;8.75;;
19814;SDS011;10067;53.092;8.800;2023-07-22T05:15:39;16.90;;;8.77;;
19814;SDS011;10067;53.092;8.800;2023-07-22T05:18:05;19.55;;;9.68;;
19814;SDS011;10067;53.092;8.800;2023-07-22T05:20:31;18.25;;;9.00;;
19814;SDS011;10067;53.092;8.800;2023-07-22T05:22:59;18.20;;;9.23;;
19814;SDS011;10067;53.092;8.800;2023-07-22T05:25:25;18.50;;;9.07;;
19814;SDS011;10067;53.092;8.800;2023-07-22T05:27:52;13.45;;;8.75;;
19814;SDS011;10067;53.092;8.800;2023-07-22T05:30:18;17.95;;;8.93;;
19814;SDS011;10067;53.092;8.800;2023-07-22T05:32:44;17.17;;;10.98;;
19814;SDS011;10067;53.092;8.800;2023-07-22T05:35:11;14.15;;;7.90;;
19814;SDS011;10067;53.092;8.800;2023-07-22T05:37:37;18.88;;;7.93;;
19814;SDS011;10067;53.092;8.800;2023-07-22T05:40:05;12.82;;;7.72;;
19814;SDS011;10067;53.092;8.800;2023-07-22T05:42:32;14.23;;;8.05;;
19814;SDS011;10067;53.092;8.800;2023-07-22T05:44:59;12.45;;;7.70;;
19814;SDS011;10067;53.092;8.800;2023-07-22T05:47:26;12.90;;;8.52;;
19814;SDS011;10067;53.092;8.800;2023-07-22T05:49:52;13.55;;;7.63;;
19814;SDS011;10067;53.092;8.800;2023-07-22T05:52:18;12.88;;;7.82;;
19814;SDS011;10067;53.092;8.800;2023-07-22T05:54:45;13.98;;;7.93;;
19814;SDS011;10067;53.092;8.800;2023-07-22T05:57:12;13.90;;;7.65;;
19814;SDS011;10067;53.092;8.800;2023-07-22T05:59:39;16.60;;;7.93;;
19814;SDS011;10067;53.092;8.800;2023-07-22T06:02:05;10.38;;;6.55;;
19814;SDS011;10067;53.092;8.800;2023-07-22T06:04:32;14.57;;;7.22;;
19814;SDS011;10067;53.092;8.800;2023-07-22T06:06:58;16.27;;;6.95;;
19814;SDS011;10067;53.092;8.800;2023-07-22T06:09:24;15.10;;;7.25;;
19814;SDS011;10067;53.092;8.800;2023-07-22T06:11:51;13.80;;;7.60;;
19814;SDS011;10067;53.092;8.800;2023-07-22T06:14:18;13.70;;;7.45;;
19814;SDS011;10067;53.092;8.800;2023-07-22T06:16:45;13.18;;;7.65;;
19814;SDS011;10067;53.092;8.800;2023-07-22T06:19:11;15.05;;;7.95;;
19814;SDS011;10067;53.092;8.800;2023-07-22T06:21:38;12.60;;;6.78;;
19814;SDS011;10067;53.092;8.800;2023-07-22T06:24:04;12.02;;;7.13;;
19814;SDS011;10067;53.092;8.800;2023-07-22T06:26:31;14.25;;;7.63;;
19814;SDS011;10067;53.092;8.800;2023-07-22T06:28:57;17.65;;;6.65;;
19814;SDS011;10067;53.092;8.800;2023-07-22T06:31:25;12.15;;;7.22;;
19814;SDS011;10067;53.092;8.800;2023-07-22T06:33:55;12.63;;;6.15;;
19814;SDS011;10067;53.092;8.800;2023-07-22T06:36:21;13.32;;;6.80;;
19814;SDS011;10067;53.092;8.800;2023-07-22T06:38:48;14.07;;;6.95;;
19814;SDS011;10067;53.092;8.800;2023-07-22T06:41:15;17.67;;;10.20;;
19814;SDS011;10067;53.092;8.800;2023-07-22T06:43:41;12.77;;;7.85;;
19814;SDS011;10067;53.092;8.800;2023-07-22T06:46:08;14.85;;;7.50;;
19814;SDS011;10067;53.092;8.800;2023-07-22T06:48:35;16.50;;;7.65;;
19814;SDS011;10067;53.092;8.800;2023-07-22T06:51:02;12.57;;;6.35;;
19814;SDS011;10067;53.092;8.800;2023-07-22T06:53:28;14.07;;;7.30;;
19814;SDS011;10067;53.092;8.800;2023-07-22T06:55:56;14.10;;;8.75;;
19814;SDS011;10067;53.092;8.800;2023-07-22T06:58:22;13.27;;;6.32;;
19814;SDS011;10067;53.092;8.800;2023-07-22T07:00:52;10.68;;;6.20;;
19814;SDS011;10067;53.092;8.800;2023-07-22T07:03:18;13.68;;;6.47;;
19814;SDS011;10067;53.092;8.800;2023-07-22T07:05:52;8.98;;;5.32;;
19814;SDS011;10067;53.092;8.800;2023-07-22T07:08:18;10.18;;;4.90;;
19814;SDS011;10067;53.092;8.800;2023-07-22T07:10:45;9.00;;;5.18;;
19814;SDS011;10067;53.092;8.800;2023-07-22T07:13:11;14.77;;;6.22;;
19814;SDS011;10067;53.092;8.800;2023-07-22T07:15:37;9.73;;;5.00;;
19814;SDS011;10067;53.092;8.800;2023-07-22T07:18:04;8.48;;;4.50;;
19814;SDS011;10067;53.092;8.800;2023-07-22T07:20:31;7.05;;;4.63;;
19814;SDS011;10067;53.092;8.800;2023-07-22T07:22:58;9.50;;;4.90;;
19814;SDS011;10067;53.092;8.800;2023-07-22T07:25:25;11.10;;;5.97;;
19814;SDS011;10067;53.092;8.800;2023-07-22T07:27:51;11.85;;;5.20;;
19814;SDS011;10067;53.092;8.800;2023-07-22T07:30:18;11.25;;;5.32;;
19814;SDS011;10067;53.092;8.800;2023-07-22T07:32:44;10.82;;;5.45;;
19814;SDS011;10067;53.092;8.800;2023-07-22T07:35:11;8.07;;;4.57;;
19814;SDS011;10067;53.092;8.800;2023-07-22T07:37:37;8.18;;;4.65;;
19814;SDS011;10067;53.092;8.800;2023-07-22T07:40:06;9.88;;;5.63;;
19814;SDS011;10067;53.092;8.800;2023-07-22T07:42:33;8.48;;;4.68;;
19814;SDS011;10067;53.092;8.800;2023-07-22T07:44:59;5.75;;;3.95;;
19814;SDS011;10067;53.092;8.800;2023-07-22T07:47:26;8.15;;;4.60;;
19814;SDS011;10067;53.092;8.800;2023-07-22T07:49:52;6.05;;;3.47;;
19814;SDS011;10067;53.092;8.800;2023-07-22T07:52:18;7.57;;;3.88;;
19814;SDS011;10067;53.092;8.800;2023-07-22T07:54:45;10.68;;;5.93;;
19814;SDS011;10067;53.092;8.800;2023-07-22T07:57:12;6.18;;;3.75;;
19814;SDS011;10067;53.092;8.800;2023-07-22T07:59:39;8.40;;;4.07;;
19814;SDS011;10067;53.092;8.800;2023-07-22T08:02:06;7.70;;;4.15;;
19814;SDS011;10067;53.092;8.800;2023-07-22T08:04:34;11.90;;;6.57;;
19814;SDS011;10067;53.092;8.800;2023-07-22T08:07:01;7.50;;;3.90;;
19814;SDS011;10067;53.092;8.800;2023-07-22T08:09:29;8.13;;;4.50;;
19814;SDS011;10067;53.092;8.800;2023-07-22T08:11:55;7.18;;;4.85;;
19814;SDS011;10067;53.092;8.800;2023-07-22T08:14:23;8.35;;;4.45;;
19814;SDS011;10067;53.092;8.800;2023-07-22T08:16:49;7.50;;;4.32;;
19814;SDS011;10067;53.092;8.800;2023-07-22T08:19:16;6.18;;;4.13;;
19814;SDS011;10067;53.092;8.800;2023-07-22T08:21:42;8.50;;;4.68;;
19814;SDS011;10067;53.092;8.800;2023-07-22T08:24:08;6.78;;;3.78;;
19814;SDS011;10067;53.092;8.800;2023-07-22T08:26:35;7.43;;;4.00;;
19814;SDS011;10067;53.092;8.800;2023-07-22T08:29:01;5.50;;;4.00;;
19814;SDS011;10067;53.092;8.800;2023-07-22T08:31:29;9.48;;;5.22;;
19814;SDS011;10067;53.092;8.800;2023-07-22T08:33:55;7.53;;;5.18;;
19814;SDS011;10067;53.092;8.800;2023-07-22T08:36:22;5.50;;;3.65;;
19814;SDS011;10067;53.092;8.800;2023-07-22T08:38:49;6.88;;;3.70;;
19814;SDS011;10067;53.092;8.800;2023-07-22T08:41:16;6.40;;;4.03;;
19814;SDS011;10067;53.092;8.800;2023-07-22T08:43:42;10.02;;;5.68;;
19814;SDS011;10067;53.092;8.800;2023-07-22T08:46:11;7.57;;;5.43;;
19814;SDS011;10067;53.092;8.800;2023-07-22T08:48:38;8.73;;;4.70;;
19814;SDS011;10067;53.092;8.800;2023-07-22T08:51:09;9.60;;;5.53;;
19814;SDS011;10067;53.092;8.800;2023-07-22T08:53:36;10.15;;;5.43;;
19814;SDS011;10067;53.092;8.800;2023-07-22T08:56:03;8.85;;;5.55;;
19814;SDS011;10067;53.092;8.800;2023-07-22T08:58:30;8.90;;;6.43;;
19814;SDS011;10067;53.092;8.800;2023-07-22T09:00:56;14.50;;;6.22;;
19814;SDS011;10067;53.092;8.800;2023-07-22T09:03:23;10.48;;;6.40;;
19814;SDS011;10067;53.092;8.800;2023-07-22T09:05:51;8.95;;;6.22;;
19814;SDS011;10067;53.092;8.800;2023-07-22T09:08:17;13.07;;;7.05;;
19814;SDS011;10067;53.092;8.800;2023-07-22T09:10:44;10.43;;;6.32;;
19814;SDS011;10067;53.092;8.800;2023-07-22T09:13:11;9.73;;;6.10;;
19814;SDS011;10067;53.092;8.800;2023-07-22T09:15:37;10.63;;;6.93;;
19814;SDS011;10067;53.092;8.800;2023-07-22T09:18:04;12.57;;;7.25;;
19814;SDS011;10067;53.092;8.800;2023-07-22T09:20:31;13.77;;;7.32;;
19814;SDS011;10067;53.092;8.800;2023-07-22T09:22:59;10.38;;;7.53;;
19814;SDS011;10067;53.092;8.800;2023-07-22T09:25:26;13.60;;;7.90;;
19814;SDS011;10067;53.092;8.800;2023-07-22T09:27:53;13.52;;;8.38;;
19814;SDS011;10067;53.092;8.800;2023-07-22T09:30:24;16.55;;;7.97;;
19814;SDS011;10067;53.092;8.800;2023-07-22T09:32:51;14.35;;;8.27;;
19814;SDS011;10067;53.092;8.800;2023-07-22T09:35:17;14.70;;;9.27;;
19814;SDS011;10067;53.092;8.800;2023-07-22T09:37:44;17.83;;;7.85;;
19814;SDS011;10067;53.092;8.800;2023-07-22T09:40:16;10.27;;;7.43;;
19814;SDS011;10067;53.092;8.800;2023-07-22T09:42:44;14.98;;;8.63;;
19814;SDS011;10067;53.092;8.800;2023-07-22T09:45:11;13.82;;;8.88;;
19814;SDS011;10067;53.092;8.800;2023-07-22T09:47:39;14.40;;;8.50;;
19814;SDS011;10067;53.092;8.800;2023-07-22T09:50:06;12.70;;;9.38;;
19814;SDS011;10067;53.092;8.800;2023-07-22T09:52:32;11.35;;;7.90;;
19814;SDS011;10067;53.092;8.800;2023-07-22T09:54:59;14.15;;;9.07;;
19814;SDS011;10067;53.092;8.800;2023-07-22T09:57:26;14.25;;;8.00;;
19814;SDS011;10067;53.092;8.800;2023-07-22T09:59:53;15.45;;;9.30;;
19814;SDS011;10067;53.092;8.800;2023-07-22T10:02:19;14.55;;;9.05;;
19814;SDS011;10067;53.092;8.800;2023-07-22T10:04:47;15.52;;;9.45;;
19814;SDS011;10067;53.092;8.800;2023-07-22T10:07:15;11.63;;;8.10;;
19814;SDS011;10067;53.092;8.800;2023-07-22T10:09:41;9.88;;;7.70;;
19814;SDS011;10067;53.092;8.800;2023-07-22T10:12:08;14.35;;;8.13;;
19814;SDS011;10067;53.092;8.800;2023-07-22T10:14:36;11.45;;;8.02;;
19814;SDS011;10067;53.092;8.800;2023-07-22T10:17:03;13.20;;;7.65;;
19814;SDS011;10067;53.092;8.800;2023-07-22T10:19:30;14.35;;;8.20;;
19814;SDS011;10067;53.092;8.800;2023-07-22T10:21:56;12.95;;;8.15;;
19814;SDS011;10067;53.092;8.800;2023-07-22T10:24:23;12.55;;;8.35;;
19814;SDS011;10067;53.092;8.800;2023-07-22T10:26:50;13.15;;;8.43;;
19814;SDS011;10067;53.092;8.800;2023-07-22T10:29:16;13.40;;;8.85;;
19814;SDS011;10067;53.092;8.800;2023-07-22T10:31:45;15.90;;;8.77;;
19814;SDS011;10067;53.092;8.800;2023-07-22T10:34:20;14.13;;;8.77;;
19814;SDS011;10067;53.092;8.800;2023-07-22T10:36:47;20.10;;;9.45;;
19814;SDS011;10067;53.092;8.800;2023-07-22T10:39:18;13.80;;;9.25;;
19814;SDS011;10067;53.092;8.800;2023-07-22T10:41:50;14.00;;;8.73;;
19814;SDS011;10067;53.092;8.800;2023-07-22T10:44:25;13.30;;;8.52;;
19814;SDS011;10067;53.092;8.800;2023-07-22T10:46:57;11.68;;;7.80;;
19814;SDS011;10067;53.092;8.800;2023-07-22T10:49:24;11.07;;;8.10;;
19814;SDS011;10067;53.092;8.800;2023-07-22T10:51:50;13.75;;;8.27;;
19814;SDS011;10067;53.092;8.800;2023-07-22T10:54:30;10.98;;;7.35;;
19814;SDS011;10067;53.092;8.800;2023-07-22T10:56:57;9.80;;;6.65;;
19814;SDS011;10067;53.092;8.800;2023-07-22T10:59:29;8.68;;;5.80;;
19814;SDS011;10067;53.092;8.800;2023-07-22T11:01:59;9.23;;;5.82;;
19814;SDS011;10067;53.092;8.800;2023-07-22T11:04:26;10.05;;;6.38;;
19814;SDS011;10067;53.092;8.800;2023-07-22T11:06:57;9.18;;;6.55;;
19814;SDS011;10067;53.092;8.800;2023-07-22T11:09:33;10.85;;;6.38;;
19814;SDS011;10067;53.092;8.800;2023-07-22T11:12:00;11.05;;;6.07;;
19814;SDS011;10067;53.092;8.800;2023-07-22T11:14:27;12.60;;;6.63;;
19814;SDS011;10067;53.092;8.800;2023-07-22T11:16:55;11.35;;;7.10;;
19814;SDS011;10067;53.092;8.800;2023-07-22T11:19:24;9.65;;;6.07;;
19814;SDS011;10067;53.092;8.800;2023-07-22T11:21:51;11.35;;;6.93;;
19814;SDS011;10067;53.092;8.800;2023-07-22T11:24:18;9.82;;;6.72;;
19814;SDS011;10067;53.092;8.800;2023-07-22T11:26:44;10.25;;;6.88;;
19814;SDS011;10067;53.092;8.800;2023-07-22T11:29:11;11.13;;;6.80;;
19814;SDS011;10067;53.092;8.800;2023-07-22T11:31:38;11.38;;;6.50;;
19814;SDS011;10067;53.092;8.800;2023-07-22T11:34:07;11.18;;;6.82;;
19814;SDS011;10067;53.092;8.800;2023-07-22T11:36:35;9.90;;;6.20;;
19814;SDS011;10067;53.092;8.800;2023-07-22T11:39:02;10.75;;;6.82;;
19814;SDS011;10067;53.092;8.800;2023-07-22T11:41:29;11.50;;;7.28;;
19814;SDS011;10067;53.092;8.800;2023-07-22T11:43:56;12.65;;;6.95;;
19814;SDS011;10067;53.092;8.800;2023-07-22T11:46:22;10.95;;;6.70;;
19814;SDS011;10067;53.092;8.800;2023-07-22T11:48:49;10.88;;;6.28;;
19814;SDS011;10067;53.092;8.800;2023-07-22T11:51:16;10.05;;;6.82;;
19814;SDS011;10067;53.092;8.800;2023-07-22T11:53:44;9.85;;;5.88;;
19814;SDS011;10067;53.092;8.800;2023-07-22T11:56:13;10.10;;;6.85;;
19814;SDS011;10067;53.092;8.800;2023-07-22T11:58:43;11.00;;;6.82;;
19814;SDS011;10067;53.092;8.800;2023-07-22T12:01:14;8.23;;;6.07;;
19814;SDS011;10067;53.092;8.800;2023-07-22T12:03:40;10.70;;;6.88;;
19814;SDS011;10067;53.092;8.800;2023-07-22T12:06:07;9.40;;;6.43;;
19814;SDS011;10067;53.092;8.800;2023-07-22T12:08:33;15.88;;;5.78;;
19814;SDS011;10067;53.092;8.800;2023-07-22T12:11:02;9.85;;;6.60;;
19814;SDS011;10067;53.092;8.800;2023-07-22T12:13:29;11.80;;;5.65;;
19814;SDS011;10067;53.092;8.800;2023-07-22T12:16:01;8.73;;;6.10;;
19814;SDS011;10067;53.092;8.800;2023-07-22T12:18:28;9.07;;;6.00;;
19814;SDS011;10067;53.092;8.800;2023-07-22T12:20:56;9.30;;;5.97;;
19814;SDS011;10067;53.092;8.800;2023-07-22T12:23:23;11.88;;;6.15;;
19814;SDS011;10067;53.092;8.800;2023-07-22T12:25:49;11.77;;;7.70;;
19814;SDS011;10067;53.092;8.800;2023-07-22T12:28:17;11.70;;;6.60;;
19814;SDS011;10067;53.092;8.800;2023-07-22T12:30:43;10.77;;;6.80;;
19814;SDS011;10067;53.092;8.800;2023-07-22T12:33:09;16.17;;;7.25;;
19814;SDS011;10067;53.092;8.800;2023-07-22T12:35:36;9.48;;;6.93;;
19814;SDS011;10067;53.092;8.800;2023-07-22T12:38:02;8.05;;;6.18;;
19814;SDS011;10067;53.092;8.800;2023-07-22T12:40:28;6.25;;;5.45;;
19814;SDS011;10067;53.092;8.800;2023-07-22T12:42:55;9.63;;;6.47;;
19814;SDS011;10067;53.092;8.800;2023-07-22T12:45:22;10.02;;;7.68;;
19814;SDS011;10067;53.092;8.800;2023-07-22T12:47:49;11.50;;;7.80;;
19814;SDS011;10067;53.092;8.800;2023-07-22T12:50:15;11.50;;;8.57;;
19814;SDS011;10067;53.092;8.800;2023-07-22T12:52:42;12.25;;;7.32;;
19814;SDS011;10067;53.092;8.800;2023-07-22T12:55:08;18.20;;;9.63;;
19814;SDS011;10067;53.092;8.800;2023-07-22T12:57:34;15.40;;;9.73;;
19814;SDS011;10067;53.092;8.800;2023-07-22T13:00:01;15.73;;;10.13;;
19814;SDS011;10067;53.092;8.800;2023-07-22T13:02:31;18.02;;;11.80;;
19814;SDS011;10067;53.092;8.800;2023-07-22T13:04:57;32.03;;;17.38;;
19814;SDS011;10067;53.092;8.800;2023-07-22T13:07:24;29.33;;;20.60;;
19814;SDS011;10067;53.092;8.800;2023-07-22T13:09:50;24.88;;;15.13;;
19814;SDS011;10067;53.092;8.800;2023-07-22T13:12:18;29.15;;;17.25;;
19814;SDS011;10067;53.092;8.800;2023-07-22T13:14:45;25.17;;;16.23;;
19814;SDS011;10067;53.092;8.800;2023-07-22T13:17:11;20.48;;;14.45;;
19814;SDS011;10067;53.092;8.800;2023-07-22T13:19:39;24.02;;;14.48;;
19814;SDS011;10067;53.092;8.800;2023-07-22T13:22:05;25.23;;;15.75;;
19814;SDS011;10067;53.092;8.800;2023-07-22T13:24:31;24.60;;;15.88;;
19814;SDS011;10067;53.092;8.800;2023-07-22T13:26:58;28.40;;;16.83;;
19814;SDS011;10067;53.092;8.800;2023-07-22T13:29:24;20.13;;;13.98;;
19814;SDS011;10067;53.092;8.800;2023-07-22T13:31:50;22.30;;;14.30;;
19814;SDS011;10067;53.092;8.800;2023-07-22T13:34:17;25.95;;;14.30;;
19814;SDS011;10067;53.092;8.800;2023-07-22T13:36:45;22.20;;;13.68;;
19814;SDS011;10067;53.092;8.800;2023-07-22T13:39:12;19.13;;;12.52;;
19814;SDS011;10067;53.092;8.800;2023-07-22T13:41:38;25.38;;;14.52;;
19814;SDS011;10067;53.092;8.800;2023-07-22T13:44:04;22.02;;;14.75;;
19814;SDS011;10067;53.092;8.800;2023-07-22T13:46:31;27.60;;;15.13;;
19814;SDS011;10067;53.092;8.800;2023-07-22T13:48:57;28.98;;;19.35;;
19814;SDS011;10067;53.092;8.800;2023-07-22T13:51:23;26.55;;;18.52;;
19814;SDS011;10067;53.092;8.800;2023-07-22T13:53:51;23.35;;;15.57;;
19814;SDS011;10067;53.092;8.800;2023-07-22T13:56:19;30.83;;;18.25;;
19814;SDS011;10067;53.092;8.800;2023-07-22T13:58:46;29.98;;;17.65;;
19814;SDS011;10067;53.092;8.800;2023-07-22T14:01:12;30.40;;;17.52;;
19814;SDS011;10067;53.092;8.800;2023-07-22T14:03:39;26.83;;;15.98;;
19814;SDS011;10067;53.092;8.800;2023-07-22T14:06:05;27.33;;;16.65;;
19814;SDS011;10067;53.092;8.800;2023-07-22T14:08:31;30.42;;;16.63;;
19814;SDS011;10067;53.092;8.800;2023-07-22T14:11:00;25.85;;;15.35;;
19814;SDS011;10067;53.092;8.800;2023-07-22T14:13:26;24.70;;;14.20;;
19814;SDS011;10067;53.092;8.800;2023-07-22T14:15:52;23.55;;;15.00;;
19814;SDS011;10067;53.092;8.800;2023-07-22T14:18:19;27.13;;;15.70;;
19814;SDS011;10067;53.092;8.800;2023-07-22T14:20:45;23.15;;;16.20;;
19814;SDS011;10067;53.092;8.800;2023-07-22T14:23:12;28.77;;;16.52;;
19814;SDS011;10067;53.092;8.800;2023-07-22T14:25:38;24.55;;;16.77;;
19814;SDS011;10067;53.092;8.800;2023-07-22T14:28:06;25.58;;;15.57;;
19814;SDS011;10067;53.092;8.800;2023-07-22T14:30:32;23.48;;;14.50;;
19814;SDS011;10067;53.092;8.800;2023-07-22T14:32:59;24.05;;;16.08;;